createdAt,value
2023-05-11T00:02:08.482Z,12.95
2023-05-11T00:04:55.172Z,11.82
2023-05-11T00:07:40.353Z,11.88
2023-05-11T00:10:25.888Z,12.75
2023-05-11T00:13:11.347Z,11.18
2023-05-11T00:15:56.815Z,11.98
2023-05-11T00:18:42.261Z,14.93
2023-05-11T00:21:27.574Z,14.82
2023-05-11T00:24:12.974Z,14.90
2023-05-11T00:26:58.489Z,14.40
2023-05-11T00:29:43.989Z,15.00
2023-05-11T00:32:29.434Z,14.13
2023-05-11T00:35:14.845Z,15.13
2023-05-11T00:38:00.403Z,14.52
2023-05-11T00:40:46.168Z,13.75
2023-05-11T00:43:31.386Z,13.55
2023-05-11T00:46:17.609Z,12.60
2023-05-11T00:49:03.222Z,13.55
2023-05-11T00:51:48.550Z,13.02
2023-05-11T00:54:34.664Z,12.20
2023-05-11T00:57:21.361Z,12.77
2023-05-11T01:00:07.303Z,14.95
2023-05-11T01:02:53.487Z,18.00
2023-05-11T01:05:53.361Z,17.73
2023-05-11T01:09:34.229Z,17.30
2023-05-11T01:12:33.079Z,16.85
2023-05-11T01:15:36.861Z,18.95
2023-05-11T01:18:34.840Z,16.27
2023-05-11T01:21:30.200Z,15.52
2023-05-11T01:24:42.932Z,14.95
2023-05-11T01:30:29.833Z,16.80
2023-05-11T01:33:16.644Z,16.52
2023-05-11T01:36:06.189Z,16.48
2023-05-11T01:38:54.102Z,15.10
2023-05-11T01:41:41.904Z,14.57
2023-05-11T01:44:31.467Z,12.80
2023-05-11T01:47:18.192Z,11.50
2023-05-11T01:50:06.157Z,11.02
2023-05-11T01:52:52.975Z,10.20
2023-05-11T01:55:40.534Z,9.27
2023-05-11T01:58:27.102Z,10.23
2023-05-11T02:01:14.252Z,10.80
2023-05-11T02:04:04.009Z,13.85
2023-05-11T02:06:50.982Z,14.30
2023-05-11T02:09:37.932Z,13.82
2023-05-11T02:12:25.767Z,14.23
2023-05-11T02:15:12.145Z,15.57
2023-05-11T02:17:58.894Z,15.60
2023-05-11T02:20:48.049Z,14.52
2023-05-11T02:23:34.464Z,14.65
2023-05-11T02:26:20.054Z,15.38
2023-05-11T02:29:05.478Z,14.70
2023-05-11T02:31:57.310Z,13.65
2023-05-11T02:34:49.628Z,12.85
2023-05-11T02:40:30.558Z,14.68
2023-05-11T02:43:21.873Z,13.23
2023-05-11T02:46:16.689Z,12.80
2023-05-11T02:49:08.208Z,12.18
2023-05-11T02:51:56.191Z,11.80
2023-05-11T02:54:43.126Z,13.63
2023-05-11T02:57:28.696Z,14.70
2023-05-11T03:00:17.792Z,14.65
2023-05-11T03:03:04.382Z,13.77
2023-05-11T03:05:49.846Z,13.65
2023-05-11T03:08:35.474Z,12.57
2023-05-11T03:11:22.490Z,13.07
2023-05-11T03:14:08.125Z,14.43
2023-05-11T03:16:56.007Z,13.75
2023-05-11T03:19:42.201Z,14.40
2023-05-11T03:22:29.326Z,14.00
2023-05-11T03:25:17.181Z,14.52
2023-05-11T03:28:04.585Z,13.65
2023-05-11T03:30:53.532Z,14.00
2023-05-11T03:33:39.054Z,15.55
2023-05-11T03:36:26.518Z,13.88
2023-05-11T03:39:14.954Z,13.50
2023-05-11T03:42:01.771Z,12.18
2023-05-11T03:44:50.953Z,11.30
2023-05-11T03:47:39.597Z,10.25
2023-05-11T03:50:26.975Z,10.65
2023-05-11T03:53:13.297Z,10.85
2023-05-11T03:55:58.903Z,9.88
2023-05-11T03:58:44.904Z,10.73
2023-05-11T04:01:31.807Z,9.73
2023-05-11T04:04:17.167Z,10.10
2023-05-11T04:07:02.569Z,11.18
2023-05-11T04:09:47.923Z,11.15
2023-05-11T04:12:33.452Z,10.40
2023-05-11T04:15:19.121Z,12.00
2023-05-11T04:18:04.521Z,11.52
2023-05-11T04:20:50.947Z,11.25
2023-05-11T04:23:36.977Z,10.65
2023-05-11T04:26:22.526Z,9.95
2023-05-11T04:29:07.531Z,9.88
2023-05-11T04:31:54.056Z,10.20
2023-05-11T04:34:39.855Z,10.23
2023-05-11T04:37:26.504Z,9.57
2023-05-11T04:40:13.068Z,9.27
2023-05-11T04:43:00.121Z,10.55
2023-05-11T04:45:49.586Z,10.35
2023-05-11T04:48:38.947Z,10.77
2023-05-11T04:51:25.244Z,10.38
2023-05-11T04:54:10.889Z,10.95
2023-05-11T04:56:56.543Z,11.80
2023-05-11T04:59:41.747Z,12.23
2023-05-11T05:02:27.111Z,12.35
2023-05-11T05:05:12.759Z,11.15
2023-05-11T05:07:58.269Z,10.95
2023-05-11T05:10:43.618Z,11.07
2023-05-11T05:13:29.008Z,9.98
2023-05-11T05:16:14.616Z,8.85
2023-05-11T05:18:59.819Z,8.07
2023-05-11T05:21:46.746Z,9.00
2023-05-11T05:24:33.700Z,8.90
2023-05-11T05:27:19.718Z,8.57
2023-05-11T05:30:06.122Z,8.50
2023-05-11T05:32:52.119Z,8.25
2023-05-11T05:35:37.689Z,9.48
2023-05-11T05:38:23.453Z,9.27
2023-05-11T05:41:09.204Z,9.05
2023-05-11T05:43:57.717Z,7.78
2023-05-11T05:46:43.194Z,7.60
2023-05-11T05:49:28.462Z,8.32
2023-05-11T05:52:13.849Z,8.57
2023-05-11T05:55:00.232Z,9.40
2023-05-11T05:57:46.038Z,8.70
2023-05-11T06:00:31.492Z,9.30
2023-05-11T06:03:23.001Z,8.82
2023-05-11T06:06:08.256Z,8.15
2023-05-11T06:08:53.911Z,7.20
2023-05-11T06:11:39.857Z,6.85
2023-05-11T06:14:25.516Z,7.38
2023-05-11T06:17:11.458Z,7.40
2023-05-11T06:19:56.947Z,7.15
2023-05-11T06:22:45.914Z,7.22
2023-05-11T06:25:35.659Z,6.00
2023-05-11T06:28:24.364Z,6.53
2023-05-11T06:31:11.800Z,5.50
2023-05-11T06:33:59.293Z,5.00
2023-05-11T06:36:47.630Z,5.10
2023-05-11T06:39:36.514Z,4.20
2023-05-11T06:42:25.237Z,3.80
2023-05-11T06:45:22.582Z,4.40
2023-05-11T06:48:07.869Z,4.53
2023-05-11T06:50:53.303Z,3.97
2023-05-11T06:53:39.280Z,4.00
2023-05-11T06:56:24.667Z,4.20
2023-05-11T06:59:11.106Z,4.47
2023-05-11T07:01:56.517Z,4.20
2023-05-11T07:04:41.827Z,4.05
2023-05-11T07:07:27.194Z,3.70
2023-05-11T07:10:12.651Z,3.88
2023-05-11T07:12:58.145Z,3.75
2023-05-11T07:15:43.581Z,4.13
2023-05-11T07:18:29.054Z,4.13
2023-05-11T07:21:14.309Z,4.15
2023-05-11T07:23:59.716Z,4.15
2023-05-11T07:26:45.091Z,4.50
2023-05-11T07:29:30.537Z,4.53
2023-05-11T07:32:16.041Z,4.40
2023-05-11T07:35:01.384Z,5.20
2023-05-11T07:37:47.147Z,4.40
2023-05-11T07:40:32.826Z,4.60
2023-05-11T07:43:18.255Z,5.32
2023-05-11T07:46:04.179Z,4.60
2023-05-11T07:48:55.222Z,4.20
2023-05-11T07:51:45.945Z,5.25
2023-05-11T07:54:31.251Z,5.57
2023-05-11T07:57:17.135Z,4.88
2023-05-11T08:00:02.265Z,4.72
2023-05-11T08:02:57.632Z,4.43
2023-05-11T08:05:43.108Z,5.60
2023-05-11T08:08:30.043Z,6.53
2023-05-11T08:11:15.470Z,6.90
2023-05-11T08:14:00.907Z,5.80
2023-05-11T08:16:46.455Z,6.47
2023-05-11T08:19:31.630Z,7.25
2023-05-11T08:22:16.982Z,6.80
2023-05-11T08:25:03.560Z,7.13
2023-05-11T08:27:48.550Z,6.90
2023-05-11T08:30:33.853Z,6.78
2023-05-11T08:33:36.054Z,7.22
2023-05-11T08:36:23.254Z,6.78
2023-05-11T08:39:08.450Z,6.78
2023-05-11T08:41:56.986Z,6.63
2023-05-11T08:44:44.160Z,7.18
2023-05-11T08:47:30.102Z,6.55
2023-05-11T08:50:15.425Z,5.40
2023-05-11T08:53:00.886Z,5.43
2023-05-11T08:55:47.647Z,5.55
2023-05-11T08:58:34.366Z,5.13
2023-05-11T09:01:23.211Z,5.03
2023-05-11T09:04:08.881Z,4.45
2023-05-11T09:06:54.968Z,4.00
2023-05-11T09:09:41.964Z,3.72
2023-05-11T09:12:28.636Z,2.97
2023-05-11T09:15:13.674Z,3.25
2023-05-11T09:17:59.611Z,3.55
2023-05-11T09:20:45.085Z,3.20
2023-05-11T09:23:32.330Z,4.07
2023-05-11T09:26:20.795Z,4.90
2023-05-11T09:29:05.827Z,5.20
2023-05-11T09:31:51.309Z,5.43
2023-05-11T09:34:43.088Z,5.45
2023-05-11T09:37:28.853Z,9.30
2023-05-11T09:40:26.933Z,9.68
2023-05-11T09:43:17.365Z,9.27
2023-05-11T09:46:07.193Z,8.48
2023-05-11T09:49:00.540Z,9.57
2023-05-11T09:51:45.708Z,11.43
2023-05-11T09:54:31.309Z,15.30
2023-05-11T09:57:32.537Z,15.23
2023-05-11T10:00:17.902Z,14.00
2023-05-11T10:03:08.139Z,12.45
2023-05-11T10:06:01.157Z,10.90
2023-05-11T10:08:47.274Z,9.57
2023-05-11T10:11:32.628Z,9.50
2023-05-11T10:14:19.296Z,9.30
2023-05-11T10:17:05.663Z,8.25
2023-05-11T10:19:52.799Z,7.45
2023-05-11T10:22:39.534Z,9.52
2023-05-11T10:25:26.494Z,8.85
2023-05-11T10:28:11.921Z,7.72
2023-05-11T10:30:58.066Z,8.23
2023-05-11T10:33:44.185Z,8.95
2023-05-11T10:36:30.063Z,9.43
2023-05-11T10:39:15.107Z,9.23
2023-05-11T10:42:26.821Z,9.18
2023-05-11T10:45:29.051Z,11.27
2023-05-11T10:48:34.696Z,9.23
2023-05-11T10:51:34.472Z,9.27
2023-05-11T10:54:28.518Z,9.15
2023-05-11T10:57:42.008Z,9.45
2023-05-11T11:00:56.852Z,11.30
2023-05-11T11:03:55.058Z,10.32
2023-05-11T11:06:44.303Z,9.52
2023-05-11T11:09:50.723Z,8.82
2023-05-11T11:12:36.450Z,8.77
2023-05-11T11:15:22.092Z,9.23
2023-05-11T11:18:38.105Z,8.95
2023-05-11T11:21:41.290Z,9.90
2023-05-11T11:24:38.534Z,8.93
2023-05-11T11:27:43.805Z,8.55
2023-05-11T11:30:30.471Z,8.68
2023-05-11T11:33:16.114Z,8.10
2023-05-11T11:36:01.728Z,7.80
2023-05-11T11:39:00.265Z,8.13
2023-05-11T11:41:46.290Z,7.50
2023-05-11T11:44:32.338Z,8.38
2023-05-11T11:47:22.346Z,7.80
2023-05-11T11:50:13.541Z,6.95
2023-05-11T11:52:59.518Z,7.13
2023-05-11T11:55:50.063Z,7.72
2023-05-11T11:59:00.585Z,6.93
2023-05-11T12:01:51.848Z,7.70
2023-05-11T12:04:43.485Z,7.95
2023-05-11T12:07:33.509Z,7.78
2023-05-11T12:10:23.081Z,9.98
2023-05-11T12:13:10.689Z,9.25
2023-05-11T12:16:12.449Z,9.43
2023-05-11T12:19:01.582Z,9.40
2023-05-11T12:21:47.883Z,9.57
2023-05-11T12:24:33.507Z,8.60
2023-05-11T12:27:19.694Z,9.27
2023-05-11T12:30:05.569Z,8.45
2023-05-11T12:32:56.472Z,8.45
2023-05-11T12:35:44.006Z,7.22
2023-05-11T12:38:29.809Z,6.30
2023-05-11T12:41:22.674Z,5.10
2023-05-11T12:44:07.828Z,6.88
2023-05-11T12:46:53.781Z,6.82
2023-05-11T12:49:42.482Z,6.38
2023-05-11T12:52:27.534Z,5.82
2023-05-11T12:55:13.118Z,6.45
2023-05-11T12:58:08.702Z,5.70
2023-05-11T13:00:58.333Z,5.65
2023-05-11T13:03:47.206Z,5.53
2023-05-11T13:06:32.747Z,4.18
2023-05-11T13:09:25.545Z,5.25
2023-05-11T13:12:12.097Z,4.70
2023-05-11T13:15:12.442Z,4.38
2023-05-11T13:17:59.133Z,5.05
2023-05-11T13:20:45.046Z,4.95
2023-05-11T13:23:31.212Z,4.38
2023-05-11T13:26:23.013Z,4.22
2023-05-11T13:29:10.722Z,3.22
2023-05-11T13:31:56.600Z,3.75
2023-05-11T13:34:41.960Z,4.00
2023-05-11T13:37:27.585Z,3.70
2023-05-11T13:40:13.374Z,3.17
2023-05-11T13:42:58.646Z,3.40
2023-05-11T13:45:44.280Z,3.50
2023-05-11T13:48:29.784Z,4.30
2023-05-11T13:51:15.155Z,4.53
2023-05-11T13:54:02.572Z,4.43
2023-05-11T13:56:48.311Z,4.10
2023-05-11T13:59:33.582Z,4.25
2023-05-11T14:02:19.444Z,3.72
2023-05-11T14:05:04.868Z,3.97
2023-05-11T14:07:50.567Z,3.72
2023-05-11T14:10:36.080Z,3.00
2023-05-11T14:13:22.180Z,3.05
2023-05-11T14:16:09.905Z,3.58
2023-05-11T14:18:55.310Z,3.40
2023-05-11T14:21:40.715Z,3.55
2023-05-11T14:24:26.519Z,3.10
2023-05-11T14:27:12.217Z,3.05
2023-05-11T14:29:57.442Z,3.05
2023-05-11T14:32:42.934Z,2.45
2023-05-11T14:35:28.259Z,2.72
2023-05-11T14:38:13.738Z,2.40
2023-05-11T14:41:00.061Z,2.90
2023-05-11T14:43:46.262Z,3.13
2023-05-11T14:46:31.632Z,3.00
2023-05-11T14:49:17.228Z,2.53
2023-05-11T14:52:02.800Z,2.45
2023-05-11T14:54:48.173Z,2.78
2023-05-11T14:57:33.660Z,3.10
2023-05-11T15:00:19.240Z,2.10
2023-05-11T15:03:04.771Z,2.20
2023-05-11T15:05:50.931Z,2.67
2023-05-11T15:08:35.916Z,2.60
2023-05-11T15:11:21.795Z,3.03
2023-05-11T15:14:07.095Z,2.60
2023-05-11T15:16:54.661Z,2.55
2023-05-11T15:19:40.301Z,2.30
2023-05-11T15:22:25.779Z,2.20
2023-05-11T15:25:11.222Z,2.10
2023-05-11T15:27:56.632Z,2.03
2023-05-11T15:30:42.149Z,1.77
2023-05-11T15:33:27.876Z,2.03
2023-05-11T15:36:15.405Z,1.90
2023-05-11T15:39:00.729Z,1.90
2023-05-11T15:41:46.546Z,2.60
2023-05-11T15:44:31.582Z,2.97
2023-05-11T15:47:17.461Z,2.50
2023-05-11T15:50:02.826Z,2.50
2023-05-11T15:52:48.298Z,3.70
2023-05-11T15:55:34.324Z,3.33
2023-05-11T15:58:19.482Z,3.03
2023-05-11T16:01:05.027Z,2.60
2023-05-11T16:03:50.461Z,2.80
2023-05-11T16:06:35.798Z,2.75
2023-05-11T16:09:21.398Z,2.90
2023-05-11T16:12:07.451Z,2.92
2023-05-11T16:14:52.781Z,3.10
2023-05-11T16:17:38.365Z,2.67
2023-05-11T16:20:23.937Z,2.50
2023-05-11T16:23:09.360Z,3.05
2023-05-11T16:25:56.344Z,3.10
2023-05-11T16:28:42.036Z,3.42
2023-05-11T16:31:27.488Z,3.67
2023-05-11T16:34:12.872Z,4.35
2023-05-11T16:36:59.237Z,4.60
2023-05-11T16:39:44.779Z,5.40
2023-05-11T16:42:30.590Z,5.82
2023-05-11T16:45:16.389Z,5.55
2023-05-11T16:48:02.332Z,5.65
2023-05-11T16:50:48.036Z,5.82
2023-05-11T16:53:33.468Z,5.72
2023-05-11T16:56:18.814Z,6.00
2023-05-11T16:59:04.385Z,5.93
2023-05-11T17:01:49.860Z,6.72
2023-05-11T17:04:35.172Z,6.13
2023-05-11T17:07:20.378Z,6.05
2023-05-11T17:10:06.429Z,6.00
2023-05-11T17:12:52.126Z,6.40
2023-05-11T17:15:37.386Z,6.05
2023-05-11T17:18:23.902Z,6.18
2023-05-11T17:21:09.644Z,6.05
2023-05-11T17:23:54.874Z,6.50
2023-05-11T17:26:47.920Z,7.10
2023-05-11T17:29:33.714Z,7.00
2023-05-11T17:32:19.304Z,8.45
2023-05-11T17:35:05.682Z,8.60
2023-05-11T17:37:51.200Z,8.23
2023-05-11T17:40:36.772Z,8.43
2023-05-11T17:43:22.096Z,7.85
2023-05-11T17:46:07.406Z,8.95
2023-05-11T17:48:54.073Z,8.93
2023-05-11T17:51:39.371Z,9.40
2023-05-11T17:54:24.573Z,9.23
2023-05-11T17:57:10.062Z,8.93
2023-05-11T17:59:55.809Z,8.40
2023-05-11T18:02:42.183Z,8.30
2023-05-11T18:05:40.465Z,8.68
2023-05-11T18:08:33.528Z,7.65
2023-05-11T18:11:19.328Z,7.53
2023-05-11T18:14:04.802Z,8.73
2023-05-11T18:16:52.483Z,9.52
2023-05-11T18:19:38.307Z,11.32
2023-05-11T18:22:23.819Z,11.20
2023-05-11T18:25:09.432Z,12.13
2023-05-11T18:27:55.180Z,11.55
2023-05-11T18:30:40.605Z,11.68
2023-05-11T18:33:26.150Z,11.40
2023-05-11T18:36:11.984Z,11.45
2023-05-11T18:38:57.484Z,11.23
2023-05-11T18:41:43.230Z,12.15
2023-05-11T18:44:28.381Z,11.35
2023-05-11T18:47:13.979Z,11.32
2023-05-11T18:49:59.522Z,11.02
2023-05-11T18:52:44.714Z,10.02
2023-05-11T18:55:35.504Z,7.10
2023-05-11T18:58:24.198Z,5.63
2023-05-11T19:01:09.338Z,4.88
2023-05-11T19:03:54.877Z,3.60
2023-05-11T19:06:39.895Z,1.63
2023-05-11T19:09:25.259Z,1.75
2023-05-11T19:12:11.043Z,2.20
2023-05-11T19:14:56.603Z,3.10
2023-05-11T19:17:42.194Z,3.40
2023-05-11T19:20:27.534Z,3.70
2023-05-11T19:23:12.903Z,4.00
2023-05-11T19:25:59.236Z,3.45
2023-05-11T19:28:44.521Z,4.32
2023-05-11T19:31:31.414Z,6.65
2023-05-11T19:34:17.395Z,6.68
2023-05-11T19:37:02.754Z,7.18
2023-05-11T19:39:48.720Z,6.50
2023-05-11T19:42:39.478Z,6.18
2023-05-11T19:45:24.936Z,6.28
2023-05-11T19:48:10.667Z,5.53
2023-05-11T19:50:56.157Z,5.43
2023-05-11T19:53:42.660Z,5.05
2023-05-11T19:56:27.870Z,4.72
2023-05-11T19:59:13.174Z,4.78
2023-05-11T20:01:59.910Z,5.13
2023-05-11T20:04:46.776Z,4.53
2023-05-11T20:07:32.094Z,5.60
2023-05-11T20:10:17.758Z,5.18
2023-05-11T20:13:07.892Z,5.43
2023-05-11T20:15:53.164Z,5.00
2023-05-11T20:18:38.566Z,5.03
2023-05-11T20:21:23.875Z,4.80
2023-05-11T20:24:09.442Z,4.90
2023-05-11T20:26:55.871Z,4.50
2023-05-11T20:29:41.333Z,4.88
2023-05-11T20:32:26.830Z,4.90
2023-05-11T20:35:12.976Z,4.63
2023-05-11T20:37:58.091Z,4.40
2023-05-11T20:40:43.540Z,5.43
2023-05-11T20:43:29.417Z,5.05
2023-05-11T20:46:15.701Z,5.47
2023-05-11T20:49:01.308Z,5.60
2023-05-11T20:51:46.581Z,5.65
2023-05-11T20:54:34.593Z,5.88
2023-05-11T20:57:20.451Z,5.95
2023-05-11T21:00:10.863Z,6.85
2023-05-11T21:02:57.165Z,6.30
2023-05-11T21:05:42.925Z,6.40
2023-05-11T21:08:28.269Z,6.28
2023-05-11T21:11:13.733Z,6.82
2023-05-11T21:13:59.264Z,5.88
2023-05-11T21:16:44.879Z,6.05
2023-05-11T21:19:30.314Z,6.60
2023-05-11T21:22:15.758Z,6.10
2023-05-11T21:25:03.505Z,5.72
2023-05-11T21:27:48.813Z,5.75
2023-05-11T21:30:34.604Z,5.70
2023-05-11T21:33:20.590Z,5.45
2023-05-11T21:36:08.266Z,5.10
2023-05-11T21:38:53.913Z,5.00
2023-05-11T21:41:39.441Z,4.70
2023-05-11T21:44:24.868Z,4.60
2023-05-11T21:47:10.557Z,4.43
2023-05-11T21:49:55.500Z,4.00
2023-05-11T21:52:40.907Z,4.20
2023-05-11T21:55:26.414Z,4.57
2023-05-11T21:58:12.420Z,4.18
2023-05-11T22:00:57.922Z,3.88
2023-05-11T22:03:43.351Z,4.20
2023-05-11T22:06:28.603Z,3.88
2023-05-11T22:09:13.930Z,3.80
2023-05-11T22:11:59.401Z,3.72
2023-05-11T22:14:45.697Z,3.15
2023-05-11T22:17:30.817Z,3.00
2023-05-11T22:20:17.076Z,3.00
2023-05-11T22:23:02.646Z,4.25
2023-05-11T22:25:47.988Z,3.90
2023-05-11T22:28:33.401Z,4.80
2023-05-11T22:31:18.790Z,4.57
2023-05-11T22:34:04.090Z,4.65
2023-05-11T22:36:49.481Z,4.95
2023-05-11T22:39:34.883Z,4.38
2023-05-11T22:42:21.086Z,4.47
2023-05-11T22:45:07.286Z,4.28
2023-05-11T22:47:52.282Z,4.57
2023-05-11T22:50:37.678Z,4.20
2023-05-11T22:53:23.420Z,4.70
2023-05-11T22:56:09.181Z,5.03
2023-05-11T22:58:55.872Z,6.65
2023-05-11T23:01:41.341Z,6.15
2023-05-11T23:04:27.173Z,5.68
2023-05-11T23:07:12.677Z,5.60
2023-05-11T23:09:57.949Z,5.10
2023-05-11T23:12:43.531Z,5.05
2023-05-11T23:15:28.871Z,5.13
2023-05-11T23:18:14.315Z,5.13
2023-05-11T23:21:00.479Z,4.93
2023-05-11T23:23:45.672Z,5.03
2023-05-11T23:26:30.890Z,5.15
2023-05-11T23:29:16.402Z,4.35
2023-05-11T23:32:01.971Z,4.18
2023-05-11T23:34:47.223Z,4.20
2023-05-11T23:37:32.620Z,4.15
2023-05-11T23:40:18.635Z,4.65
2023-05-11T23:43:04.022Z,4.32
2023-05-11T23:45:49.443Z,4.40
2023-05-11T23:48:34.926Z,3.92
2023-05-11T23:51:20.351Z,4.18
2023-05-11T23:54:05.912Z,3.50
2023-05-11T23:56:51.080Z,4.00
2023-05-11T23:59:36.403Z,3.80
